createdAt,value
2018-07-06T02:13:36.822Z,3
2018-07-06T02:21:37.258Z,7
2018-07-06T02:25:37.542Z,10
2018-07-06T02:28:06.803Z,13
2018-07-06T02:30:06.981Z,17
2018-07-06T02:31:37.935Z,20
2018-07-06T02:32:37.967Z,23
2018-07-06T02:33:38.007Z,27
2018-07-06T02:34:38.063Z,30
2018-07-06T02:35:38.204Z,33
2018-07-06T02:36:38.222Z,37
2018-07-06T02:37:07.388Z,40
2018-07-06T02:38:07.481Z,43
2018-07-06T02:38:38.303Z,47
2018-07-06T02:39:07.531Z,50
2018-07-06T02:39:38.417Z,53
2018-07-06T02:40:07.571Z,57
2018-07-06T02:40:38.515Z,60
2018-07-06T02:41:07.663Z,63
2018-07-06T02:41:38.494Z,67
2018-07-06T02:42:07.726Z,70
2018-07-06T02:42:38.556Z,73
2018-07-06T02:43:07.724Z,77
2018-07-06T02:43:38.655Z,80
2018-07-06T02:44:07.802Z,87
2018-07-06T02:44:38.675Z,90
2018-07-06T02:45:07.900Z,97
2018-07-06T02:45:38.806Z,103
2018-07-06T02:46:07.967Z,110
2018-07-06T02:46:38.811Z,117
2018-07-06T02:47:08.016Z,120
2018-07-06T02:47:38.887Z,123
2018-07-06T02:48:08.060Z,130
2018-07-06T02:48:38.961Z,137
2018-07-06T02:49:08.134Z,147
2018-07-06T02:49:39.050Z,153
2018-07-06T02:50:08.197Z,163
2018-07-06T02:50:39.165Z,173
2018-07-06T02:51:08.222Z,180
2018-07-06T02:51:39.120Z,187
2018-07-06T02:52:08.316Z,197
2018-07-06T02:52:39.214Z,203
2018-07-06T02:53:08.384Z,213
2018-07-06T02:53:39.263Z,217
2018-07-06T02:54:08.458Z,233
2018-07-06T02:54:39.301Z,247
2018-07-06T02:55:08.607Z,263
2018-07-06T02:55:39.413Z,277
2018-07-06T02:56:08.599Z,293
2018-07-06T02:56:39.542Z,310
2018-07-06T02:57:08.600Z,323
2018-07-06T02:57:39.507Z,330
2018-07-06T02:58:08.651Z,333
2018-07-06T02:58:39.584Z,337
2018-07-06T02:59:39.630Z,343
2018-07-06T03:00:08.784Z,350
2018-07-06T03:00:39.721Z,357
2018-07-06T03:01:08.909Z,367
2018-07-06T03:01:39.726Z,377
2018-07-06T03:02:08.897Z,393
2018-07-06T03:02:39.808Z,417
2018-07-06T03:03:08.956Z,440
2018-07-06T03:03:39.858Z,463
2018-07-06T03:04:09.032Z,487
2018-07-06T03:04:39.911Z,507
2018-07-06T03:05:09.135Z,527
2018-07-06T03:05:39.969Z,543
2018-07-06T03:06:09.167Z,553
2018-07-06T03:07:40.093Z,550
2018-07-06T03:08:09.311Z,557
2018-07-06T03:08:40.157Z,573
2018-07-06T03:09:09.374Z,600
2018-07-06T03:09:40.220Z,637
2018-07-06T03:10:14.974Z,667
2018-07-06T03:10:40.289Z,693
2018-07-06T03:11:09.506Z,710
2018-07-06T03:11:40.353Z,720
2018-07-06T03:12:09.517Z,733
2018-07-06T03:12:40.440Z,740
2018-07-06T03:13:09.632Z,750
2018-07-06T03:13:40.571Z,753
2018-07-06T03:14:09.652Z,767
2018-07-06T03:14:40.569Z,800
2018-07-06T03:15:09.697Z,833
2018-07-06T03:15:40.582Z,850
2018-07-06T03:16:09.777Z,863
2018-07-06T03:16:40.640Z,877
2018-07-06T03:17:09.831Z,893
2018-07-06T03:17:40.750Z,920
2018-07-06T03:18:09.893Z,947
2018-07-06T03:18:40.819Z,967
2018-07-06T03:19:09.942Z,987
2018-07-06T03:19:40.908Z,1013
2018-07-06T03:20:10.005Z,1047
2018-07-06T03:20:40.915Z,1077
2018-07-06T03:21:10.067Z,1117
2018-07-06T03:21:41.009Z,1167
2018-07-06T03:22:10.190Z,1233
2018-07-06T03:22:41.060Z,1297
2018-07-06T03:23:10.186Z,1360
2018-07-06T03:23:41.135Z,1413
2018-07-06T03:24:10.258Z,1473
2018-07-06T03:24:41.166Z,1517
2018-07-06T03:25:10.370Z,1570
2018-07-06T03:25:41.281Z,1623
2018-07-06T03:26:10.447Z,1680
2018-07-06T03:26:41.369Z,1727
2018-07-06T03:27:10.499Z,1757
2018-07-06T03:27:41.400Z,1787
2018-07-06T03:28:10.660Z,1820
2018-07-06T03:28:41.565Z,1847
2018-07-06T03:29:10.596Z,1890
2018-07-06T03:29:41.492Z,1957
2018-07-06T03:30:10.671Z,2000
2018-07-06T03:30:41.639Z,2037
2018-07-06T03:31:10.721Z,2087
2018-07-06T03:31:41.589Z,2130
2018-07-06T03:32:10.807Z,2147
2018-07-06T03:32:41.640Z,2170
2018-07-06T03:33:10.843Z,2163
2018-07-06T03:33:41.740Z,2170
2018-07-06T03:34:10.925Z,2200
2018-07-06T03:34:41.774Z,2217
2018-07-06T03:35:42.091Z,2243
2018-07-06T03:36:11.047Z,2303
2018-07-06T03:36:41.877Z,2337
2018-07-06T03:37:11.067Z,2347
2018-07-06T03:37:41.940Z,2387
2018-07-06T03:38:11.112Z,2470
2018-07-06T03:38:41.997Z,2527
2018-07-06T03:39:11.172Z,2497
2018-07-06T03:39:42.098Z,2453
2018-07-06T03:40:11.255Z,2480
2018-07-06T03:40:42.203Z,2570
2018-07-06T03:41:11.347Z,2610
2018-07-06T03:41:42.253Z,2583
2018-07-06T03:42:11.397Z,2590
2018-07-06T03:42:42.279Z,2637
2018-07-06T03:43:11.441Z,2690
2018-07-06T03:43:42.391Z,2713
2018-07-06T03:44:11.526Z,2703
2018-07-06T03:44:42.441Z,2693
2018-07-06T03:45:11.560Z,2713
2018-07-06T03:45:42.517Z,2753
2018-07-06T03:46:11.664Z,2770
2018-07-06T03:46:42.617Z,2790
2018-07-06T03:47:11.679Z,2863
2018-07-06T03:47:42.588Z,2947
2018-07-06T03:48:11.890Z,3017
2018-07-06T03:48:42.618Z,3033
2018-07-06T03:49:11.788Z,3000
2018-07-06T03:49:42.716Z,2943
2018-07-06T03:50:11.852Z,2880
2018-07-06T03:50:42.793Z,2807
2018-07-06T03:51:11.912Z,2787
2018-07-06T03:51:42.805Z,2807
2018-07-06T03:52:11.975Z,2847
2018-07-06T03:52:42.937Z,2907
2018-07-06T03:53:12.036Z,3027
2018-07-06T03:53:42.922Z,3277
2018-07-06T03:54:12.109Z,3503
2018-07-06T03:54:42.978Z,3657
2018-07-06T03:55:12.155Z,3707
2018-07-06T03:55:43.143Z,3693
2018-07-06T03:56:12.229Z,3683
2018-07-06T03:56:43.109Z,3723
2018-07-06T03:57:12.303Z,3807
2018-07-06T03:57:43.178Z,3943
2018-07-06T03:58:12.345Z,4110
2018-07-06T03:58:43.227Z,4230
2018-07-06T03:59:12.451Z,4280
2018-07-06T03:59:43.291Z,4413
2018-07-06T04:00:12.511Z,4537
2018-07-06T04:00:43.471Z,4623
2018-07-06T04:01:12.540Z,4707
2018-07-06T04:01:43.459Z,4817
2018-07-06T04:02:12.593Z,4953
2018-07-06T04:02:43.532Z,5077
2018-07-06T04:03:12.653Z,5177
2018-07-06T04:03:43.611Z,5313
2018-07-06T04:04:12.726Z,5450
2018-07-06T04:04:43.689Z,5573
2018-07-06T04:05:12.776Z,5750
2018-07-06T04:05:43.781Z,5940
2018-07-06T04:06:12.832Z,6090
2018-07-06T04:06:43.794Z,6160
2018-07-06T04:07:12.898Z,6187
2018-07-06T04:07:43.850Z,6053
2018-07-06T04:08:12.958Z,5853
2018-07-06T04:08:43.913Z,5793
2018-07-06T04:09:13.067Z,5900
2018-07-06T04:09:43.974Z,5957
2018-07-06T04:10:13.137Z,5887
2018-07-06T04:10:44.118Z,5837
2018-07-06T04:11:13.219Z,5727
2018-07-06T04:11:44.085Z,5647
2018-07-06T04:12:13.283Z,5620
2018-07-06T04:13:13.306Z,5713
2018-07-06T04:13:44.202Z,5900
2018-07-06T04:14:13.391Z,6217
2018-07-06T04:14:44.262Z,6370
2018-07-06T04:15:13.466Z,6420
2018-07-06T04:15:44.582Z,6490
2018-07-06T04:16:13.666Z,6537
2018-07-06T04:16:44.540Z,6617
2018-07-06T04:17:13.728Z,6717
2018-07-06T04:17:44.625Z,6840
2018-07-06T04:18:13.830Z,7050
2018-07-06T04:18:44.707Z,7110
2018-07-06T04:19:13.861Z,7013
2018-07-06T04:19:44.775Z,6863
2018-07-06T04:20:14.013Z,6873
2018-07-06T04:20:44.777Z,6943
2018-07-06T04:21:13.984Z,7040
2018-07-06T04:21:44.861Z,7177
2018-07-06T04:22:14.042Z,7337
2018-07-06T04:22:44.908Z,7470
2018-07-06T04:23:14.123Z,7653
2018-07-06T04:23:44.961Z,7880
2018-07-06T04:24:14.195Z,8200
2018-07-06T04:24:45.021Z,8420
2018-07-06T04:25:19.755Z,8593
2018-07-06T04:25:45.080Z,8610
2018-07-06T04:26:14.313Z,8487
2018-07-06T04:26:45.186Z,8300
2018-07-06T04:27:14.350Z,8060
2018-07-06T04:27:45.229Z,8113
2018-07-06T04:28:14.393Z,8413
2018-07-06T04:28:45.284Z,8720
2018-07-06T04:29:14.460Z,8757
2018-07-06T04:29:45.341Z,8490
2018-07-06T04:30:14.558Z,8390
2018-07-06T04:30:45.430Z,8450
2018-07-06T04:31:14.572Z,8390
2018-07-06T04:31:45.469Z,8280
2018-07-06T04:32:14.621Z,8287
2018-07-06T04:32:45.540Z,8440
2018-07-06T04:33:14.682Z,8517
2018-07-06T04:33:45.632Z,8577
2018-07-06T04:34:14.757Z,8670
2018-07-06T04:34:45.654Z,8773
2018-07-06T04:35:14.861Z,8933
2018-07-06T04:35:45.720Z,9247
2018-07-06T04:36:14.870Z,9930
2018-07-06T04:36:45.764Z,10373
2018-07-06T04:37:14.926Z,10283
2018-07-06T04:37:45.835Z,9830
2018-07-06T04:38:14.991Z,9387
2018-07-06T04:38:45.886Z,9173
2018-07-06T04:39:15.116Z,9193
2018-07-06T04:39:45.935Z,9347
2018-07-06T04:40:15.245Z,9463
2018-07-06T04:40:46.021Z,9517
2018-07-06T04:41:15.236Z,9380
2018-07-06T04:41:46.064Z,9243
2018-07-06T04:42:15.317Z,9250
2018-07-06T04:42:46.195Z,9607
2018-07-06T04:43:15.348Z,10113
2018-07-06T04:43:46.233Z,10540
2018-07-06T04:44:15.387Z,10713
2018-07-06T04:44:46.308Z,10657
2018-07-06T04:45:15.542Z,10403
2018-07-06T04:45:46.338Z,10237
2018-07-06T04:46:15.505Z,10150
2018-07-06T04:46:46.410Z,10157
2018-07-06T04:47:15.554Z,10110
2018-07-06T04:47:46.479Z,9937
2018-07-06T04:48:15.602Z,10037
2018-07-06T04:48:46.538Z,10107
2018-07-06T04:49:15.724Z,10093
2018-07-06T04:49:46.584Z,10210
2018-07-06T04:50:15.788Z,10437
2018-07-06T04:50:46.678Z,10623
2018-07-06T04:51:15.806Z,10547
2018-07-06T04:51:46.714Z,10507
2018-07-06T04:52:15.848Z,10307
2018-07-06T04:52:46.797Z,10260
2018-07-06T04:53:15.910Z,10233
2018-07-06T04:53:46.870Z,10290
2018-07-06T04:54:15.972Z,10373
2018-07-06T04:54:46.925Z,10177
2018-07-06T04:55:16.108Z,9960
2018-07-06T04:55:46.962Z,9933
2018-07-06T04:56:16.139Z,10203
2018-07-06T04:56:47.018Z,10360
2018-07-06T04:57:16.174Z,10177
2018-07-06T04:57:47.080Z,9677
2018-07-06T04:58:16.220Z,9343
2018-07-06T04:58:47.153Z,9287
2018-07-06T04:59:16.317Z,9353
2018-07-06T04:59:47.243Z,9520
2018-07-06T05:00:16.417Z,9587
2018-07-06T05:00:47.261Z,9640
2018-07-06T05:01:16.452Z,9660
2018-07-06T05:01:47.325Z,9610
2018-07-06T05:02:16.566Z,9417
2018-07-06T05:02:47.414Z,9153
2018-07-06T05:03:16.556Z,9037
2018-07-06T05:03:47.480Z,9050
2018-07-06T05:04:16.643Z,9140
2018-07-06T05:04:47.491Z,9053
2018-07-06T05:05:22.242Z,8837
2018-07-06T05:05:47.582Z,8747
2018-07-06T05:06:16.749Z,8713
2018-07-06T05:06:47.692Z,8877
2018-07-06T05:07:16.836Z,9247
2018-07-06T05:07:47.828Z,9953
2018-07-06T05:08:16.845Z,10570
2018-07-06T05:08:47.740Z,10623
2018-07-06T05:09:16.948Z,10417
2018-07-06T05:09:47.861Z,10357
2018-07-06T05:10:16.970Z,10507
2018-07-06T05:10:47.900Z,10490
2018-07-06T05:11:17.031Z,10170
2018-07-06T05:11:47.915Z,9863
2018-07-06T05:12:17.148Z,9627
2018-07-06T05:12:48.037Z,9440
2018-07-06T05:13:17.144Z,9333
2018-07-06T05:13:48.101Z,9233
2018-07-06T05:14:17.206Z,9317
2018-07-06T05:14:48.099Z,9363
2018-07-06T05:15:17.322Z,9227
2018-07-06T05:15:48.207Z,9173
2018-07-06T05:16:17.331Z,9153
2018-07-06T05:16:48.430Z,9003
2018-07-06T05:17:17.487Z,9007
2018-07-06T05:17:48.436Z,9083
2018-07-06T05:18:17.510Z,9223
2018-07-06T05:18:48.378Z,9483
2018-07-06T05:19:17.547Z,9530
2018-07-06T05:19:48.423Z,9337
2018-07-06T05:20:17.617Z,9473
2018-07-06T05:20:48.519Z,9580
2018-07-06T05:21:17.691Z,9553
2018-07-06T05:21:48.586Z,9527
2018-07-06T05:22:17.697Z,9657
2018-07-06T05:22:48.619Z,9697
2018-07-06T05:23:17.824Z,9840
2018-07-06T05:23:48.688Z,10053
2018-07-06T05:24:17.848Z,10027
2018-07-06T05:24:48.720Z,9750
2018-07-06T05:25:17.881Z,9943
2018-07-06T05:25:48.866Z,10193
2018-07-06T05:26:17.950Z,9953
2018-07-06T05:26:48.836Z,9613
2018-07-06T05:27:18.013Z,9700
2018-07-06T05:27:48.897Z,9990
2018-07-06T05:28:18.153Z,10177
2018-07-06T05:28:48.955Z,10383
2018-07-06T05:29:18.143Z,10237
2018-07-06T05:29:49.019Z,10137
2018-07-06T05:30:18.194Z,9897
2018-07-06T05:30:49.085Z,9903
2018-07-06T05:31:18.268Z,10270
2018-07-06T05:31:49.211Z,10517
2018-07-06T05:32:18.332Z,10633
2018-07-06T05:32:49.217Z,10747
2018-07-06T05:33:18.456Z,10870
2018-07-06T05:33:49.300Z,10833
2018-07-06T05:34:18.481Z,10453
2018-07-06T05:34:49.384Z,10340
2018-07-06T05:35:18.550Z,10393
2018-07-06T05:35:49.425Z,10180
2018-07-06T05:36:18.577Z,10133
2018-07-06T05:36:49.478Z,10300
2018-07-06T05:37:18.623Z,10427
2018-07-06T05:37:49.628Z,10547
2018-07-06T05:38:18.764Z,10470
2018-07-06T05:38:49.608Z,10537
2018-07-06T05:39:18.758Z,10703
2018-07-06T05:39:49.705Z,10847
2018-07-06T05:40:18.807Z,10913
2018-07-06T05:40:49.747Z,11057
2018-07-06T05:41:18.873Z,11073
2018-07-06T05:41:49.797Z,11043
2018-07-06T05:42:18.951Z,11080
2018-07-06T05:42:49.828Z,10947
2018-07-06T05:43:19.064Z,10700
2018-07-06T05:43:49.927Z,10673
2018-07-06T05:44:19.068Z,10900
2018-07-06T05:44:50.004Z,11220
2018-07-06T05:45:19.150Z,11360
2018-07-06T05:45:50.072Z,11263
2018-07-06T05:46:19.261Z,11127
2018-07-06T05:46:50.131Z,11060
2018-07-06T05:47:19.291Z,10960
2018-07-06T05:47:50.263Z,10860
2018-07-06T05:48:19.423Z,10870
2018-07-06T05:48:50.271Z,10710
2018-07-06T05:49:19.377Z,10423
2018-07-06T05:49:50.248Z,10170
2018-07-06T05:50:19.484Z,10047
2018-07-06T05:51:19.520Z,10167
2018-07-06T05:51:50.435Z,10270
2018-07-06T05:52:19.604Z,10173
2018-07-06T05:52:50.449Z,10000
2018-07-06T05:53:19.687Z,9960
2018-07-06T05:53:50.570Z,9920
2018-07-06T05:54:19.743Z,9820
2018-07-06T05:54:50.594Z,9817
2018-07-06T05:55:19.806Z,10000
2018-07-06T05:55:50.648Z,10123
2018-07-06T05:56:19.845Z,10227
2018-07-06T05:56:50.695Z,10313
2018-07-06T05:57:19.911Z,10450
2018-07-06T05:57:50.744Z,10400
2018-07-06T05:58:20.030Z,10203
2018-07-06T05:58:50.806Z,10227
2018-07-06T05:59:20.161Z,10473
2018-07-06T05:59:50.865Z,10610
2018-07-06T06:00:20.083Z,10623
2018-07-06T06:00:50.947Z,10770
2018-07-06T06:01:20.171Z,11197
2018-07-06T06:01:51.001Z,11593
2018-07-06T06:02:20.196Z,11627
2018-07-06T06:02:51.099Z,11617
2018-07-06T06:03:20.338Z,11443
2018-07-06T06:03:51.126Z,11323
2018-07-06T06:04:20.313Z,11153
2018-07-06T06:04:51.170Z,10820
2018-07-06T06:05:20.349Z,10440
2018-07-06T06:05:51.273Z,10187
2018-07-06T06:06:20.420Z,10117
2018-07-06T06:06:51.367Z,10063
2018-07-06T06:07:20.481Z,9963
2018-07-06T06:07:51.370Z,9863
2018-07-06T06:08:20.603Z,9767
2018-07-06T06:08:51.431Z,9643
2018-07-06T06:09:20.594Z,9563
2018-07-06T06:09:51.488Z,9510
2018-07-06T06:10:20.677Z,9553
2018-07-06T06:10:51.547Z,9730
2018-07-06T06:11:20.735Z,9977
2018-07-06T06:11:51.654Z,9873
2018-07-06T06:12:20.786Z,9760
2018-07-06T06:12:51.729Z,9973
2018-07-06T06:13:20.916Z,10203
2018-07-06T06:13:51.748Z,10107
2018-07-06T06:14:20.920Z,9903
2018-07-06T06:14:51.853Z,9990
2018-07-06T06:15:21.004Z,10087
2018-07-06T06:15:51.862Z,9913
2018-07-06T06:16:21.028Z,9727
2018-07-06T06:16:51.984Z,9567
2018-07-06T06:17:21.149Z,9623
2018-07-06T06:17:51.977Z,9807
2018-07-06T06:18:21.255Z,9993
2018-07-06T06:18:52.237Z,10023
2018-07-06T06:19:21.273Z,9967
2018-07-06T06:19:52.171Z,9883
2018-07-06T06:20:21.332Z,9897
2018-07-06T06:20:52.214Z,9813
2018-07-06T06:21:21.410Z,9767
2018-07-06T06:21:52.276Z,9813
2018-07-06T06:22:21.465Z,9987
2018-07-06T06:22:52.308Z,10280
2018-07-06T06:23:21.537Z,10517
2018-07-06T06:23:52.348Z,10587
2018-07-06T06:24:21.521Z,10713
2018-07-06T06:24:52.537Z,10843
2018-07-06T06:25:21.644Z,10880
2018-07-06T06:25:52.519Z,10800
2018-07-06T06:26:21.660Z,10757
2018-07-06T06:26:52.555Z,10860
2018-07-06T06:27:21.764Z,11040
2018-07-06T06:27:52.653Z,11047
2018-07-06T06:28:21.823Z,10790
2018-07-06T06:28:52.706Z,10710
2018-07-06T06:29:21.822Z,10740
2018-07-06T06:29:52.781Z,10667
2018-07-06T06:30:21.889Z,10840
2018-07-06T06:30:52.837Z,11270
2018-07-06T06:31:21.951Z,11870
2018-07-06T06:31:52.899Z,12557
2018-07-06T06:32:22.014Z,13117
2018-07-06T06:32:52.939Z,13660
2018-07-06T06:33:22.475Z,13893
2018-07-06T06:33:53.183Z,13740
2018-07-06T06:34:22.146Z,13563
2018-07-06T06:34:53.053Z,13820
2018-07-06T06:35:22.242Z,14323
2018-07-06T06:35:53.141Z,14500
2018-07-06T06:36:22.331Z,14593
2018-07-06T06:36:53.208Z,14853
2018-07-06T06:37:22.350Z,15330
2018-07-06T06:37:53.252Z,15717
2018-07-06T06:38:22.487Z,15570
2018-07-06T06:38:53.330Z,15897
2018-07-06T06:39:22.535Z,16700
2018-07-06T06:39:53.387Z,17647
2018-07-06T06:40:22.541Z,18243
2018-07-06T06:40:53.421Z,18467
2018-07-06T06:41:22.606Z,18493
2018-07-06T06:41:53.477Z,18327
2018-07-06T06:42:22.688Z,18373
2018-07-06T06:42:53.524Z,18720
2018-07-06T06:43:22.789Z,19730
2018-07-06T06:43:53.579Z,21143
2018-07-06T06:44:22.815Z,21207
2018-07-06T06:44:53.667Z,19950
2018-07-06T06:45:22.869Z,19027
2018-07-06T06:45:53.708Z,18590
2018-07-06T06:46:22.998Z,19033
2018-07-06T06:46:53.763Z,19933
2018-07-06T06:47:23.013Z,20163
2018-07-06T06:47:53.824Z,20110
2018-07-06T06:48:23.132Z,20073
2018-07-06T06:48:53.885Z,20297
2018-07-06T06:49:23.111Z,20767
2018-07-06T06:49:53.970Z,20593
2018-07-06T06:50:23.179Z,20397
2018-07-06T06:50:54.068Z,20703
2018-07-06T06:51:23.217Z,21167
2018-07-06T06:51:54.090Z,20643
2018-07-06T06:52:23.300Z,19980
2018-07-06T06:52:54.137Z,20170
2018-07-06T06:53:23.421Z,19490
2018-07-06T06:53:54.189Z,18547
2018-07-06T06:54:23.405Z,19597
2018-07-06T06:54:54.313Z,20683
2018-07-06T06:55:23.755Z,21047
2018-07-06T06:55:54.390Z,21200
2018-07-06T06:56:23.537Z,21157
2018-07-06T06:56:54.389Z,20973
2018-07-06T06:57:23.567Z,19493
2018-07-06T06:57:54.496Z,17927
2018-07-06T06:58:23.638Z,17357
2018-07-06T06:58:54.584Z,16863
2018-07-06T06:59:23.673Z,16193
2018-07-06T06:59:54.577Z,15563
2018-07-06T07:00:27.533Z,14620
2018-07-06T07:00:54.718Z,14217
2018-07-06T07:01:23.797Z,15237
2018-07-06T07:01:54.704Z,16047
2018-07-06T07:02:23.859Z,16257
2018-07-06T07:02:54.770Z,17077
2018-07-06T07:03:23.923Z,19223
2018-07-06T07:03:54.813Z,19590
2018-07-06T07:04:23.978Z,18417
2018-07-06T07:04:54.887Z,17350
2018-07-06T07:05:24.102Z,17073
2018-07-06T07:05:54.927Z,16977
2018-07-06T07:06:24.162Z,17310
2018-07-06T07:06:54.997Z,18223
2018-07-06T07:07:24.327Z,18810
2018-07-06T07:07:55.085Z,19463
2018-07-06T07:08:24.231Z,20030
2018-07-06T07:08:55.117Z,19767
2018-07-06T07:09:24.326Z,19117
2018-07-06T07:09:55.186Z,18663
2018-07-06T07:10:24.458Z,19160
2018-07-06T07:10:55.261Z,19737
2018-07-06T07:11:24.464Z,19057
2018-07-06T07:11:55.339Z,17660
2018-07-06T07:12:24.514Z,16153
2018-07-06T07:12:55.412Z,14727
2018-07-06T07:13:24.590Z,13713
2018-07-06T07:13:55.658Z,13167
2018-07-06T07:14:24.635Z,13017
2018-07-06T07:14:55.548Z,12493
2018-07-06T07:15:24.736Z,11953
2018-07-06T07:15:55.595Z,11693
2018-07-06T07:16:24.725Z,11447
2018-07-06T07:16:55.635Z,11510
2018-07-06T07:17:24.830Z,11913
2018-07-06T07:17:55.712Z,12690
2018-07-06T07:18:24.907Z,12933
2018-07-06T07:18:55.753Z,13437
2018-07-06T07:19:24.910Z,14037
2018-07-06T07:19:55.922Z,14500
2018-07-06T07:20:25.025Z,14687
2018-07-06T07:20:55.931Z,14420
2018-07-06T07:21:25.035Z,13603
2018-07-06T07:21:55.988Z,13123
2018-07-06T07:22:25.091Z,13230
2018-07-06T07:23:25.210Z,13383
2018-07-06T07:23:56.132Z,13897
2018-07-06T07:24:25.234Z,14020
2018-07-06T07:24:56.126Z,13963
2018-07-06T07:25:25.543Z,14207
2018-07-06T07:25:56.226Z,15287
2018-07-06T07:26:25.358Z,15140
2018-07-06T07:26:56.288Z,13880
2018-07-06T07:27:25.434Z,12870
2018-07-06T07:27:56.327Z,12087
2018-07-06T07:28:25.520Z,12227
2018-07-06T07:28:56.379Z,12687
2018-07-06T07:29:25.548Z,13033
2018-07-06T07:29:56.507Z,13473
2018-07-06T07:30:25.704Z,13787
2018-07-06T07:30:56.501Z,14290
2018-07-06T07:31:25.698Z,15270
2018-07-06T07:31:56.573Z,15867
2018-07-06T07:32:25.744Z,16710
2018-07-06T07:32:56.689Z,17720
2018-07-06T07:33:25.833Z,18020
2018-07-06T07:33:56.659Z,17970
2018-07-06T07:34:25.874Z,17687
2018-07-06T07:34:56.726Z,17753
2018-07-06T07:35:26.442Z,17220
2018-07-06T07:35:56.805Z,17277
2018-07-06T07:36:26.020Z,17577
2018-07-06T07:36:56.921Z,18063
2018-07-06T07:37:26.058Z,18280
2018-07-06T07:37:56.914Z,18367
2018-07-06T07:38:26.116Z,19017
2018-07-06T07:38:56.984Z,19203
2018-07-06T07:39:26.176Z,18167
2018-07-06T07:39:57.036Z,17523
2018-07-06T07:40:26.275Z,19407
2018-07-06T07:40:57.134Z,20697
2018-07-06T07:41:26.298Z,21307
2018-07-06T07:41:57.191Z,21770
2018-07-06T07:42:26.367Z,21030
2018-07-06T07:42:57.269Z,20103
2018-07-06T07:43:26.428Z,19210
2018-07-06T07:43:57.305Z,18030
2018-07-06T07:44:26.507Z,17437
2018-07-06T07:44:57.392Z,17227
2018-07-06T07:45:26.565Z,17677
2018-07-06T07:45:57.444Z,18207
2018-07-06T07:46:26.613Z,18367
2018-07-06T07:46:57.472Z,18663
2018-07-06T07:47:26.633Z,19267
2018-07-06T07:47:57.529Z,19490
2018-07-06T07:48:26.737Z,18347
2018-07-06T07:48:57.635Z,18383
2018-07-06T07:49:26.771Z,19217
2018-07-06T07:49:57.648Z,18847
2018-07-06T07:50:26.816Z,19337
2018-07-06T07:50:57.801Z,19907
2018-07-06T07:51:26.891Z,20063
2018-07-06T07:51:57.767Z,19907
2018-07-06T07:52:26.971Z,20050
2018-07-06T07:52:57.834Z,21070
2018-07-06T07:53:27.016Z,20900
2018-07-06T07:53:57.910Z,20883
2018-07-06T07:54:27.121Z,22540
2018-07-06T07:54:57.965Z,24270
2018-07-06T07:55:27.131Z,25103
2018-07-06T07:55:58.074Z,25003
2018-07-06T07:56:27.201Z,24203
2018-07-06T07:56:58.095Z,23703
2018-07-06T07:57:27.313Z,23920
2018-07-06T07:57:58.202Z,23897
2018-07-06T07:58:27.364Z,22700
2018-07-06T07:58:58.238Z,22137
2018-07-06T07:59:27.372Z,22130
2018-07-06T07:59:58.307Z,20813
2018-07-06T08:00:27.572Z,18753
2018-07-06T08:00:58.658Z,20313
2018-07-06T08:01:27.568Z,20493
2018-07-06T08:01:58.441Z,20180
2018-07-06T08:02:27.640Z,21137
2018-07-06T08:02:58.492Z,21447
2018-07-06T08:03:27.622Z,22417
2018-07-06T08:03:58.605Z,23560
2018-07-06T08:04:27.680Z,23277
2018-07-06T08:04:58.619Z,24887
2018-07-06T08:05:27.796Z,26643
2018-07-06T08:05:58.748Z,27930
2018-07-06T08:06:28.073Z,27967
2018-07-06T08:06:58.767Z,27603
2018-07-06T08:07:27.865Z,27560
2018-07-06T08:07:58.825Z,26873
2018-07-06T08:08:27.931Z,26687
2018-07-06T08:08:58.883Z,24863
2018-07-06T08:09:28.055Z,22663
2018-07-06T08:09:58.942Z,23523
2018-07-06T08:10:28.051Z,24443
2018-07-06T08:10:58.962Z,26070
2018-07-06T08:11:28.176Z,27530
2018-07-06T08:11:59.028Z,27423
2018-07-06T08:12:28.180Z,24897
2018-07-06T08:12:59.091Z,25677
2018-07-06T08:13:28.291Z,29783
2018-07-06T08:14:04.908Z,32077
2018-07-06T08:14:28.427Z,31443
2018-07-06T08:14:59.261Z,30877
2018-07-06T08:15:28.415Z,29713
2018-07-06T08:15:59.446Z,25673
2018-07-06T08:16:28.644Z,22360
2018-07-06T08:17:00.865Z,23970
2018-07-06T08:17:29.568Z,27107
2018-07-06T08:18:01.457Z,28427
2018-07-06T08:18:30.562Z,29373
2018-07-06T08:19:02.447Z,30753
2018-07-06T08:19:31.559Z,31600
2018-07-06T08:20:03.421Z,31647
2018-07-06T08:20:32.530Z,34303
2018-07-06T08:21:04.479Z,37793
2018-07-06T08:21:33.772Z,36320
2018-07-06T08:22:05.481Z,34500
2018-07-06T08:22:34.569Z,34540
2018-07-06T08:23:06.418Z,33437
2018-07-06T08:23:35.533Z,31997
2018-07-06T08:24:07.448Z,32493
2018-07-06T08:24:36.529Z,32477
2018-07-06T08:25:08.417Z,31577
2018-07-06T08:25:37.604Z,30837
2018-07-06T08:26:09.411Z,29077
2018-07-06T08:26:38.640Z,28590
2018-07-06T08:27:10.399Z,28433
2018-07-06T08:27:39.562Z,27107
2018-07-06T08:28:10.519Z,25480
2018-07-06T08:28:39.640Z,26883
2018-07-06T08:29:10.548Z,27730
2018-07-06T08:29:39.649Z,27850
2018-07-06T08:30:10.595Z,28080
2018-07-06T08:30:39.700Z,28293
2018-07-06T08:31:10.653Z,27607
2018-07-06T08:31:39.895Z,25993
2018-07-06T08:32:10.676Z,24563
2018-07-06T08:32:39.826Z,22317
2018-07-06T08:33:10.740Z,22423
2018-07-06T08:33:39.883Z,25617
2018-07-06T08:34:10.843Z,28797
2018-07-06T08:34:39.954Z,29197
2018-07-06T08:35:10.896Z,26897
2018-07-06T08:35:40.013Z,24330
2018-07-06T08:36:10.925Z,21783
2018-07-06T08:36:40.129Z,19377
2018-07-06T08:37:11.006Z,17753
2018-07-06T08:37:40.133Z,18823
2018-07-06T08:38:11.057Z,20560
2018-07-06T08:38:40.265Z,19060
2018-07-06T08:39:11.159Z,16800
2018-07-06T08:39:40.327Z,16327
2018-07-06T08:40:11.227Z,17197
2018-07-06T08:40:40.359Z,19250
2018-07-06T08:41:11.273Z,20413
2018-07-06T08:41:40.444Z,20330
2018-07-06T08:42:11.298Z,18163
2018-07-06T08:42:40.490Z,15643
2018-07-06T08:43:11.365Z,13977
2018-07-06T08:43:40.499Z,13897
2018-07-06T08:44:11.458Z,15567
2018-07-06T08:44:40.563Z,17460
2018-07-06T08:45:11.554Z,18970
2018-07-06T08:45:40.634Z,18647
2018-07-06T08:46:11.569Z,17607
2018-07-06T08:46:40.749Z,17290
2018-07-06T08:47:11.577Z,16783
2018-07-06T08:47:41.105Z,16657
2018-07-06T08:48:11.945Z,16477
2018-07-06T08:48:41.172Z,17077
2018-07-06T08:49:12.005Z,18207
2018-07-06T08:49:41.216Z,19377
2018-07-06T08:50:12.125Z,19720
2018-07-06T08:50:41.244Z,19157
2018-07-06T08:51:12.140Z,18803
2018-07-06T08:51:41.345Z,17797
2018-07-06T08:52:12.233Z,15923
2018-07-06T08:52:41.401Z,14580
2018-07-06T08:53:12.302Z,13607
2018-07-06T08:53:41.468Z,12900
2018-07-06T08:54:12.421Z,13070
2018-07-06T08:54:41.529Z,13437
2018-07-06T08:55:12.451Z,13040
2018-07-06T08:55:41.563Z,13440
2018-07-06T08:56:12.539Z,15097
2018-07-06T08:56:41.636Z,16577
2018-07-06T08:57:12.544Z,17110
2018-07-06T08:57:41.703Z,16377
2018-07-06T08:58:12.621Z,15513
2018-07-06T08:58:41.813Z,15317
2018-07-06T08:59:12.652Z,14790
2018-07-06T08:59:41.798Z,13653
2018-07-06T09:00:12.689Z,12543
2018-07-06T09:00:41.864Z,12373
2018-07-06T09:01:12.751Z,13567
2018-07-06T09:01:41.926Z,14630
2018-07-06T09:02:12.897Z,15543
2018-07-06T09:02:41.981Z,16613
2018-07-06T09:03:12.868Z,16637
2018-07-06T09:03:42.048Z,15697
2018-07-06T09:04:13.028Z,14680
2018-07-06T09:04:42.212Z,14047
2018-07-06T09:05:12.990Z,14777
2018-07-06T09:05:42.175Z,15957
2018-07-06T09:06:13.056Z,16357
2018-07-06T09:06:42.325Z,15853
2018-07-06T09:07:13.193Z,14790
2018-07-06T09:07:42.344Z,13880
2018-07-06T09:08:13.219Z,14247
2018-07-06T09:08:42.400Z,15113
2018-07-06T09:09:13.238Z,14630
2018-07-06T09:09:42.487Z,14257